sensor_id;sensor_type;location;lat;lon;timestamp;pressure;altitude;pressure_sealevel;temperature;humidity
31092;BME280;17747;51.070;10.930;2022-11-20T00:01:05;100346.16;;;0.89;73.03
31092;BME280;17747;51.070;10.930;2022-11-20T00:02:37;100348.81;;;0.96;72.85
31092;BME280;17747;51.070;10.930;2022-11-20T00:04:09;100345.41;;;1.03;72.70
31092;BME280;17747;51.070;10.930;2022-11-20T00:05:41;100351.56;;;1.15;72.11
31092;BME280;17747;51.070;10.930;2022-11-20T00:07:12;100340.97;;;0.93;72.43
31092;BME280;17747;51.070;10.930;2022-11-20T00:08:45;100344.63;;;1.15;71.96
31092;BME280;17747;51.070;10.930;2022-11-20T00:10:17;100345.28;;;0.90;72.26
31092;BME280;17747;51.070;10.930;2022-11-20T00:11:49;100351.25;;;0.78;72.82
31092;BME280;17747;51.070;10.930;2022-11-20T00:13:20;100340.66;;;0.58;73.78
31092;BME280;17747;51.070;10.930;2022-11-20T00:14:51;100343.44;;;0.75;73.52
31092;BME280;17747;51.070;10.930;2022-11-20T00:16:24;100337.28;;;0.67;73.81
31092;BME280;17747;51.070;10.930;2022-11-20T00:17:54;100341.50;;;0.59;74.07
31092;BME280;17747;51.070;10.930;2022-11-20T00:19:26;100332.00;;;0.61;74.02
31092;BME280;17747;51.070;10.930;2022-11-20T00:21:00;100344.41;;;0.86;73.16
31092;BME280;17747;51.070;10.930;2022-11-20T00:22:30;100336.66;;;0.95;72.63
31092;BME280;17747;51.070;10.930;2022-11-20T00:24:03;100346.34;;;1.12;72.19
31092;BME280;17747;51.070;10.930;2022-11-20T00:25:35;100341.91;;;0.98;72.37
31092;BME280;17747;51.070;10.930;2022-11-20T00:27:05;100336.63;;;0.91;72.39
31092;BME280;17747;51.070;10.930;2022-11-20T00:28:37;100346.03;;;0.76;72.99
31092;BME280;17747;51.070;10.930;2022-11-20T00:30:08;100341.75;;;0.83;72.96
31092;BME280;17747;51.070;10.930;2022-11-20T00:31:40;100347.78;;;0.79;73.14
31092;BME280;17747;51.070;10.930;2022-11-20T00:33:11;100340.00;;;0.82;72.94
31092;BME280;17747;51.070;10.930;2022-11-20T00:34:42;100343.66;;;1.01;72.61
31092;BME280;17747;51.070;10.930;2022-11-20T00:36:14;100344.72;;;1.23;71.90
31092;BME280;17747;51.070;10.930;2022-11-20T00:37:46;100344.50;;;0.98;72.49
31092;BME280;17747;51.070;10.930;2022-11-20T00:39:19;100342.78;;;1.00;72.62
31092;BME280;17747;51.070;10.930;2022-11-20T00:40:54;100345.19;;;0.77;72.63
31092;BME280;17747;51.070;10.930;2022-11-20T00:42:25;100345.22;;;0.82;72.92
31092;BME280;17747;51.070;10.930;2022-11-20T00:43:56;100342.69;;;0.91;72.99
31092;BME280;17747;51.070;10.930;2022-11-20T00:45:28;100346.16;;;0.87;73.05
31092;BME280;17747;51.070;10.930;2022-11-20T00:46:59;100344.47;;;0.95;72.80
31092;BME280;17747;51.070;10.930;2022-11-20T00:48:31;100346.19;;;0.96;72.69
31092;BME280;17747;51.070;10.930;2022-11-20T00:50:03;100346.34;;;1.13;72.27
31092;BME280;17747;51.070;10.930;2022-11-20T00:51:34;100350.72;;;1.16;72.05
31092;BME280;17747;51.070;10.930;2022-11-20T00:53:05;100348.94;;;1.10;72.13
31092;BME280;17747;51.070;10.930;2022-11-20T00:54:37;100348.63;;;0.75;72.53
31092;BME280;17747;51.070;10.930;2022-11-20T00:56:09;100347.06;;;0.94;72.83
31092;BME280;17747;51.070;10.930;2022-11-20T00:57:41;100346.28;;;1.02;72.73
31092;BME280;17747;51.070;10.930;2022-11-20T00:59:13;100339.31;;;0.98;72.40
31092;BME280;17747;51.070;10.930;2022-11-20T01:00:44;100343.56;;;0.90;72.45
31092;BME280;17747;51.070;10.930;2022-11-20T01:02:15;100339.72;;;0.52;73.40
31092;BME280;17747;51.070;10.930;2022-11-20T01:03:47;100339.19;;;0.86;73.32
31092;BME280;17747;51.070;10.930;2022-11-20T01:05:19;100337.59;;;1.05;72.54
31092;BME280;17747;51.070;10.930;2022-11-20T01:06:50;100335.06;;;1.11;72.10
31092;BME280;17747;51.070;10.930;2022-11-20T01:08:22;100339.22;;;0.89;72.78
31092;BME280;17747;51.070;10.930;2022-11-20T01:09:53;100338.56;;;1.15;72.09
31092;BME280;17747;51.070;10.930;2022-11-20T01:11:25;100337.75;;;1.22;71.63
31092;BME280;17747;51.070;10.930;2022-11-20T01:12:57;100334.28;;;1.20;71.55
31092;BME280;17747;51.070;10.930;2022-11-20T01:14:42;100339.44;;;1.15;71.73
31092;BME280;17747;51.070;10.930;2022-11-20T01:16:14;100335.06;;;1.09;72.14
31092;BME280;17747;51.070;10.930;2022-11-20T01:17:45;100335.09;;;1.13;71.66
31092;BME280;17747;51.070;10.930;2022-11-20T01:19:17;100325.56;;;1.15;71.95
31092;BME280;17747;51.070;10.930;2022-11-20T01:20:49;100325.34;;;0.89;71.75
31092;BME280;17747;51.070;10.930;2022-11-20T01:22:19;100328.13;;;1.10;72.10
31092;BME280;17747;51.070;10.930;2022-11-20T01:23:51;100318.59;;;1.11;71.76
31092;BME280;17747;51.070;10.930;2022-11-20T01:25:24;100323.81;;;1.15;71.46
31092;BME280;17747;51.070;10.930;2022-11-20T01:26:55;100324.69;;;1.19;71.37
31092;BME280;17747;51.070;10.930;2022-11-20T01:28:26;100321.22;;;1.18;71.57
31092;BME280;17747;51.070;10.930;2022-11-20T01:29:58;100324.03;;;1.44;70.94
31092;BME280;17747;51.070;10.930;2022-11-20T01:31:30;100327.19;;;1.03;71.46
31092;BME280;17747;51.070;10.930;2022-11-20T01:33:02;100324.56;;;1.00;71.88
31092;BME280;17747;51.070;10.930;2022-11-20T01:34:32;100329.00;;;1.11;71.82
31092;BME280;17747;51.070;10.930;2022-11-20T01:36:04;100331.63;;;1.17;71.64
31092;BME280;17747;51.070;10.930;2022-11-20T01:37:35;100333.59;;;1.44;71.00
31092;BME280;17747;51.070;10.930;2022-11-20T01:39:07;100334.41;;;1.41;70.78
31092;BME280;17747;51.070;10.930;2022-11-20T01:40:41;100334.22;;;1.12;71.13
31092;BME280;17747;51.070;10.930;2022-11-20T01:42:12;100329.69;;;0.88;71.93
31092;BME280;17747;51.070;10.930;2022-11-20T01:44:01;100329.88;;;1.13;71.78
31092;BME280;17747;51.070;10.930;2022-11-20T01:47:24;100329.00;;;1.11;71.74
31092;BME280;17747;51.070;10.930;2022-11-20T01:48:57;100324.78;;;1.28;71.12
31092;BME280;17747;51.070;10.930;2022-11-20T01:50:29;100321.09;;;0.98;71.43
31092;BME280;17747;51.070;10.930;2022-11-20T01:52:01;100323.81;;;1.14;71.43
31092;BME280;17747;51.070;10.930;2022-11-20T01:53:35;100323.88;;;1.20;71.30
31092;BME280;17747;51.070;10.930;2022-11-20T01:55:08;100316.00;;;1.09;71.58
31092;BME280;17747;51.070;10.930;2022-11-20T01:56:42;100311.50;;;0.94;72.12
31092;BME280;17747;51.070;10.930;2022-11-20T01:58:15;100306.19;;;0.77;71.99
31092;BME280;17747;51.070;10.930;2022-11-20T01:59:47;100311.66;;;1.09;71.69
31092;BME280;17747;51.070;10.930;2022-11-20T02:01:20;100302.91;;;0.98;71.88
31092;BME280;17747;51.070;10.930;2022-11-20T02:02:53;100303.72;;;0.96;71.81
31092;BME280;17747;51.070;10.930;2022-11-20T02:04:25;100302.97;;;1.09;71.61
31092;BME280;17747;51.070;10.930;2022-11-20T02:05:59;100300.31;;;1.00;71.51
31092;BME280;17747;51.070;10.930;2022-11-20T02:07:33;100296.91;;;1.12;71.49
31092;BME280;17747;51.070;10.930;2022-11-20T02:09:03;100298.63;;;1.08;71.49
31092;BME280;17747;51.070;10.930;2022-11-20T02:10:35;100291.59;;;0.96;71.90
31092;BME280;17747;51.070;10.930;2022-11-20T02:12:07;100302.94;;;1.04;71.77
31092;BME280;17747;51.070;10.930;2022-11-20T02:13:58;100295.03;;;0.94;71.84
31092;BME280;17747;51.070;10.930;2022-11-20T02:15:29;100301.16;;;1.00;71.82
31092;BME280;17747;51.070;10.930;2022-11-20T02:16:59;100298.63;;;1.08;71.75
31092;BME280;17747;51.070;10.930;2022-11-20T02:18:31;100296.84;;;1.02;71.63
31092;BME280;17747;51.070;10.930;2022-11-20T02:20:02;100301.19;;;1.03;71.56
31092;BME280;17747;51.070;10.930;2022-11-20T02:21:35;100298.66;;;1.13;71.43
31092;BME280;17747;51.070;10.930;2022-11-20T02:23:09;100296.06;;;1.13;71.48
31092;BME280;17747;51.070;10.930;2022-11-20T02:24:44;100294.25;;;1.02;71.40
31092;BME280;17747;51.070;10.930;2022-11-20T02:26:17;100292.59;;;1.14;71.44
31092;BME280;17747;51.070;10.930;2022-11-20T02:27:48;100290.06;;;1.21;71.19
31092;BME280;17747;51.070;10.930;2022-11-20T02:29:23;100298.81;;;1.32;71.24
31092;BME280;17747;51.070;10.930;2022-11-20T02:30:54;100291.72;;;1.13;71.02
31092;BME280;17747;51.070;10.930;2022-11-20T02:32:27;100298.69;;;1.17;71.51
31092;BME280;17747;51.070;10.930;2022-11-20T02:33:58;100298.75;;;1.23;71.23
31092;BME280;17747;51.070;10.930;2022-11-20T02:35:41;100301.28;;;1.19;71.30
31092;BME280;17747;51.070;10.930;2022-11-20T02:37:12;100296.09;;;1.19;71.09
31092;BME280;17747;51.070;10.930;2022-11-20T02:38:45;100299.63;;;1.27;70.74
31092;BME280;17747;51.070;10.930;2022-11-20T02:40:17;100294.31;;;1.13;71.30
31092;BME280;17747;51.070;10.930;2022-11-20T02:41:48;100295.28;;;1.29;70.75
31092;BME280;17747;51.070;10.930;2022-11-20T02:43:19;100297.78;;;1.11;71.09
31092;BME280;17747;51.070;10.930;2022-11-20T02:44:51;100295.13;;;1.07;71.22
31092;BME280;17747;51.070;10.930;2022-11-20T02:46:22;100297.72;;;1.01;71.42
31092;BME280;17747;51.070;10.930;2022-11-20T02:47:52;100295.13;;;1.07;71.46
31092;BME280;17747;51.070;10.930;2022-11-20T02:49:24;100292.59;;;1.12;71.24
31092;BME280;17747;51.070;10.930;2022-11-20T02:50:55;100290.84;;;1.08;71.37
31092;BME280;17747;51.070;10.930;2022-11-20T02:52:26;100295.91;;;0.94;71.83
31092;BME280;17747;51.070;10.930;2022-11-20T02:53:57;100285.56;;;1.00;71.65
31092;BME280;17747;51.070;10.930;2022-11-20T02:55:30;100285.47;;;0.91;72.05
31092;BME280;17747;51.070;10.930;2022-11-20T02:57:00;100287.13;;;0.80;72.24
31092;BME280;17747;51.070;10.930;2022-11-20T02:58:32;100282.00;;;0.89;72.12
31092;BME280;17747;51.070;10.930;2022-11-20T03:00:02;100281.81;;;0.69;72.46
31092;BME280;17747;51.070;10.930;2022-11-20T03:01:34;100279.34;;;0.82;72.24
31092;BME280;17747;51.070;10.930;2022-11-20T03:03:06;100282.13;;;1.07;71.79
31092;BME280;17747;51.070;10.930;2022-11-20T03:04:37;100278.66;;;1.05;71.56
31092;BME280;17747;51.070;10.930;2022-11-20T03:06:08;100276.13;;;1.15;71.44
31092;BME280;17747;51.070;10.930;2022-11-20T03:07:39;100284.81;;;1.18;71.12
31092;BME280;17747;51.070;10.930;2022-11-20T03:09:10;100284.84;;;1.23;70.99
31092;BME280;17747;51.070;10.930;2022-11-20T03:10:43;100288.25;;;1.11;71.19
31092;BME280;17747;51.070;10.930;2022-11-20T03:12:13;100276.63;;;0.71;72.19
31092;BME280;17747;51.070;10.930;2022-11-20T03:13:45;100273.41;;;0.99;71.78
31092;BME280;17747;51.070;10.930;2022-11-20T03:15:17;100274.25;;;0.95;71.88
31092;BME280;17747;51.070;10.930;2022-11-20T03:16:47;100280.47;;;1.16;71.49
31092;BME280;17747;51.070;10.930;2022-11-20T03:18:19;100282.19;;;1.14;71.24
31092;BME280;17747;51.070;10.930;2022-11-20T03:19:50;100274.38;;;1.15;71.56
31092;BME280;17747;51.070;10.930;2022-11-20T03:21:20;100276.91;;;1.03;71.48
31092;BME280;17747;51.070;10.930;2022-11-20T03:22:53;100276.88;;;0.97;71.66
31092;BME280;17747;51.070;10.930;2022-11-20T03:24:23;100280.34;;;0.97;71.52
31092;BME280;17747;51.070;10.930;2022-11-20T03:25:56;100275.00;;;0.80;72.11
31092;BME280;17747;51.070;10.930;2022-11-20T03:27:36;100271.31;;;0.57;72.40
31092;BME280;17747;51.070;10.930;2022-11-20T03:29:08;100273.22;;;0.75;72.91
31092;BME280;17747;51.070;10.930;2022-11-20T03:30:39;100271.50;;;0.77;72.39
31092;BME280;17747;51.070;10.930;2022-11-20T03:32:09;100263.53;;;0.59;72.73
31092;BME280;17747;51.070;10.930;2022-11-20T03:33:41;100270.47;;;0.61;72.84
31092;BME280;17747;51.070;10.930;2022-11-20T03:35:13;100271.50;;;0.75;72.71
31092;BME280;17747;51.070;10.930;2022-11-20T03:36:44;100267.97;;;0.70;72.87
31092;BME280;17747;51.070;10.930;2022-11-20T03:38:16;100266.16;;;0.62;73.02
31092;BME280;17747;51.070;10.930;2022-11-20T03:39:47;100269.88;;;0.88;72.55
31092;BME280;17747;51.070;10.930;2022-11-20T03:41:20;100259.38;;;0.79;73.03
31092;BME280;17747;51.070;10.930;2022-11-20T03:42:52;100261.09;;;0.74;72.79
31092;BME280;17747;51.070;10.930;2022-11-20T03:44:23;100256.03;;;0.94;72.26
31092;BME280;17747;51.070;10.930;2022-11-20T03:45:54;100254.34;;;1.00;72.12
31092;BME280;17747;51.070;10.930;2022-11-20T03:47:24;100260.50;;;1.08;71.49
31092;BME280;17747;51.070;10.930;2022-11-20T03:48:56;100255.38;;;1.24;70.96
31092;BME280;17747;51.070;10.930;2022-11-20T03:50:27;100251.44;;;0.62;72.20
31092;BME280;17747;51.070;10.930;2022-11-20T03:51:58;100250.72;;;0.80;72.35
31092;BME280;17747;51.070;10.930;2022-11-20T03:53:29;100247.16;;;0.66;72.45
31092;BME280;17747;51.070;10.930;2022-11-20T03:55:00;100243.78;;;0.79;72.27
31092;BME280;17747;51.070;10.930;2022-11-20T03:56:33;100247.34;;;0.89;72.02
31092;BME280;17747;51.070;10.930;2022-11-20T03:58:05;100239.56;;;0.96;71.50
31092;BME280;17747;51.070;10.930;2022-11-20T03:59:35;100248.22;;;0.91;71.72
31092;BME280;17747;51.070;10.930;2022-11-20T04:01:07;100244.75;;;0.93;71.99
31092;BME280;17747;51.070;10.930;2022-11-20T04:02:39;100246.50;;;0.96;71.68
31092;BME280;17747;51.070;10.930;2022-11-20T04:04:09;100245.63;;;0.95;71.30
31092;BME280;17747;51.070;10.930;2022-11-20T04:05:41;100258.75;;;1.09;71.31
31092;BME280;17747;51.070;10.930;2022-11-20T04:07:12;100254.38;;;1.03;70.96
31092;BME280;17747;51.070;10.930;2022-11-20T04:08:44;100249.03;;;0.85;72.10
31092;BME280;17747;51.070;10.930;2022-11-20T04:10:16;100248.19;;;0.88;71.86
31092;BME280;17747;51.070;10.930;2022-11-20T04:11:48;100246.72;;;1.26;71.00
31092;BME280;17747;51.070;10.930;2022-11-20T04:13:19;100250.03;;;1.01;71.05
31092;BME280;17747;51.070;10.930;2022-11-20T04:14:50;100247.25;;;0.76;72.17
31092;BME280;17747;51.070;10.930;2022-11-20T04:16:22;100245.53;;;0.83;72.18
31092;BME280;17747;51.070;10.930;2022-11-20T04:17:54;100239.69;;;1.16;71.46
31092;BME280;17747;51.070;10.930;2022-11-20T04:19:25;100236.94;;;0.90;71.30
31092;BME280;17747;51.070;10.930;2022-11-20T04:20:57;100238.66;;;0.85;71.85
31092;BME280;17747;51.070;10.930;2022-11-20T04:22:27;100241.06;;;0.64;72.49
31092;BME280;17747;51.070;10.930;2022-11-20T04:23:59;100236.72;;;0.63;72.62
31092;BME280;17747;51.070;10.930;2022-11-20T04:25:29;100236.69;;;0.60;73.02
31092;BME280;17747;51.070;10.930;2022-11-20T04:27:02;100244.91;;;1.13;71.47
31092;BME280;17747;51.070;10.930;2022-11-20T04:28:33;100235.19;;;0.89;71.42
31092;BME280;17747;51.070;10.930;2022-11-20T04:30:05;100241.38;;;1.05;71.42
31092;BME280;17747;51.070;10.930;2022-11-20T04:31:37;100234.50;;;1.15;70.79
31092;BME280;17747;51.070;10.930;2022-11-20T04:33:07;100236.91;;;0.87;71.29
31092;BME280;17747;51.070;10.930;2022-11-20T04:34:38;100237.69;;;0.74;71.85
31092;BME280;17747;51.070;10.930;2022-11-20T04:36:10;100245.69;;;0.98;71.44
31092;BME280;17747;51.070;10.930;2022-11-20T04:37:41;100242.22;;;0.99;71.16
31092;BME280;17747;51.070;10.930;2022-11-20T04:39:13;100241.22;;;0.84;71.61
31092;BME280;17747;51.070;10.930;2022-11-20T04:40:44;100234.16;;;0.70;71.98
31092;BME280;17747;51.070;10.930;2022-11-20T04:42:17;100233.97;;;0.47;72.88
31092;BME280;17747;51.070;10.930;2022-11-20T04:44:01;100240.91;;;0.48;72.71
31092;BME280;17747;51.070;10.930;2022-11-20T04:45:33;100239.25;;;0.54;73.17
31092;BME280;17747;51.070;10.930;2022-11-20T04:47:05;100235.13;;;0.80;72.43
31092;BME280;17747;51.070;10.930;2022-11-20T04:48:36;100237.00;;;0.99;71.47
31092;BME280;17747;51.070;10.930;2022-11-20T04:50:08;100236.59;;;0.50;72.41
31092;BME280;17747;51.070;10.930;2022-11-20T04:51:39;100231.47;;;0.57;72.33
31092;BME280;17747;51.070;10.930;2022-11-20T04:53:11;100234.09;;;0.60;72.50
31092;BME280;17747;51.070;10.930;2022-11-20T04:54:41;100237.72;;;0.78;72.47
31092;BME280;17747;51.070;10.930;2022-11-20T04:56:12;100234.25;;;0.81;71.97
31092;BME280;17747;51.070;10.930;2022-11-20T04:57:45;100228.00;;;0.59;72.09
31092;BME280;17747;51.070;10.930;2022-11-20T04:59:20;100230.00;;;0.92;71.72
31092;BME280;17747;51.070;10.930;2022-11-20T05:00:52;100230.97;;;1.06;71.28
31092;BME280;17747;51.070;10.930;2022-11-20T05:02:23;100238.66;;;0.88;71.17
31092;BME280;17747;51.070;10.930;2022-11-20T05:03:54;100229.81;;;0.66;71.86
31092;BME280;17747;51.070;10.930;2022-11-20T05:05:26;100235.19;;;0.86;72.00
31092;BME280;17747;51.070;10.930;2022-11-20T05:06:57;100229.28;;;1.08;71.14
31092;BME280;17747;51.070;10.930;2022-11-20T05:08:28;100232.00;;;1.33;70.45
31092;BME280;17747;51.070;10.930;2022-11-20T05:09:59;100228.50;;;1.28;70.44
31092;BME280;17747;51.070;10.930;2022-11-20T05:11:31;100235.13;;;0.82;70.58
31092;BME280;17747;51.070;10.930;2022-11-20T05:13:04;100235.13;;;0.80;71.56
31092;BME280;17747;51.070;10.930;2022-11-20T05:14:35;100231.81;;;0.99;70.96
31092;BME280;17747;51.070;10.930;2022-11-20T05:16:06;100235.13;;;0.83;71.34
31092;BME280;17747;51.070;10.930;2022-11-20T05:17:38;100228.25;;;0.87;71.53
31092;BME280;17747;51.070;10.930;2022-11-20T05:19:09;100235.34;;;1.11;70.93
31092;BME280;17747;51.070;10.930;2022-11-20T05:20:41;100232.69;;;1.03;70.47
31092;BME280;17747;51.070;10.930;2022-11-20T05:22:11;100225.66;;;0.85;70.87
31092;BME280;17747;51.070;10.930;2022-11-20T05:23:43;100222.84;;;0.62;71.68
31092;BME280;17747;51.070;10.930;2022-11-20T05:25:14;100220.19;;;0.52;72.10
31092;BME280;17747;51.070;10.930;2022-11-20T05:26:45;100219.53;;;0.83;71.58
31092;BME280;17747;51.070;10.930;2022-11-20T05:28:18;100224.88;;;1.04;71.26
31092;BME280;17747;51.070;10.930;2022-11-20T05:29:50;100223.84;;;0.79;71.01
31092;BME280;17747;51.070;10.930;2022-11-20T05:31:22;100219.44;;;0.71;71.62
31092;BME280;17747;51.070;10.930;2022-11-20T05:32:53;100221.25;;;0.83;71.45
31092;BME280;17747;51.070;10.930;2022-11-20T05:34:24;100214.47;;;1.01;70.70
31092;BME280;17747;51.070;10.930;2022-11-20T05:35:57;100221.16;;;0.69;71.27
31092;BME280;17747;51.070;10.930;2022-11-20T05:37:27;100217.94;;;1.05;70.61
31092;BME280;17747;51.070;10.930;2022-11-20T05:38:59;100223.06;;;0.88;70.69
31092;BME280;17747;51.070;10.930;2022-11-20T05:40:30;100217.84;;;0.88;70.84
31092;BME280;17747;51.070;10.930;2022-11-20T05:42:01;100212.69;;;0.94;71.00
31092;BME280;17747;51.070;10.930;2022-11-20T05:43:53;100215.97;;;0.72;71.07
31092;BME280;17747;51.070;10.930;2022-11-20T05:45:25;100205.63;;;0.76;71.02
31092;BME280;17747;51.070;10.930;2022-11-20T05:46:56;100214.50;;;1.07;70.58
31092;BME280;17747;51.070;10.930;2022-11-20T05:48:27;100205.88;;;1.12;70.31
31092;BME280;17747;51.070;10.930;2022-11-20T05:49:59;100204.94;;;1.03;70.07
31092;BME280;17747;51.070;10.930;2022-11-20T05:51:30;100208.97;;;0.62;71.03
31092;BME280;17747;51.070;10.930;2022-11-20T05:53:02;100208.25;;;0.83;71.07
31092;BME280;17747;51.070;10.930;2022-11-20T05:54:33;100204.00;;;0.89;70.63
31092;BME280;17747;51.070;10.930;2022-11-20T05:56:05;100202.41;;;1.09;70.45
31092;BME280;17747;51.070;10.930;2022-11-20T05:57:37;100202.97;;;0.69;70.96
31092;BME280;17747;51.070;10.930;2022-11-20T05:59:09;100209.00;;;0.65;71.40
31092;BME280;17747;51.070;10.930;2022-11-20T06:00:40;100209.13;;;0.82;71.00
31092;BME280;17747;51.070;10.930;2022-11-20T06:02:12;100202.25;;;0.90;70.84
31092;BME280;17747;51.070;10.930;2022-11-20T06:03:43;100202.09;;;0.67;71.12
31092;BME280;17747;51.070;10.930;2022-11-20T06:05:17;100205.38;;;0.44;71.86
31092;BME280;17747;51.070;10.930;2022-11-20T06:06:48;100200.34;;;0.63;71.45
31092;BME280;17747;51.070;10.930;2022-11-20T06:08:19;100207.44;;;0.85;71.10
31092;BME280;17747;51.070;10.930;2022-11-20T06:09:50;100202.41;;;1.11;70.34
31092;BME280;17747;51.070;10.930;2022-11-20T06:11:21;100204.06;;;1.01;70.04
31092;BME280;17747;51.070;10.930;2022-11-20T06:12:53;100194.47;;;0.94;70.35
31092;BME280;17747;51.070;10.930;2022-11-20T06:14:26;100191.16;;;1.18;69.76
31092;BME280;17747;51.070;10.930;2022-11-20T06:15:57;100198.06;;;1.16;69.58
31092;BME280;17747;51.070;10.930;2022-11-20T06:17:28;100198.78;;;0.91;69.94
31092;BME280;17747;51.070;10.930;2022-11-20T06:19:00;100198.88;;;1.06;69.95
31092;BME280;17747;51.070;10.930;2022-11-20T06:20:31;100188.47;;;1.04;69.88
31092;BME280;17747;51.070;10.930;2022-11-20T06:22:02;100193.69;;;1.07;69.69
31092;BME280;17747;51.070;10.930;2022-11-20T06:23:34;100190.03;;;0.78;70.32
31092;BME280;17747;51.070;10.930;2022-11-20T06:25:05;100193.66;;;1.03;70.51
31092;BME280;17747;51.070;10.930;2022-11-20T06:26:37;100196.31;;;1.11;69.73
31092;BME280;17747;51.070;10.930;2022-11-20T06:28:07;100193.59;;;0.92;69.94
31092;BME280;17747;51.070;10.930;2022-11-20T06:29:40;100194.53;;;1.00;69.80
31092;BME280;17747;51.070;10.930;2022-11-20T06:31:12;100190.06;;;0.84;69.83
31092;BME280;17747;51.070;10.930;2022-11-20T06:32:44;100196.28;;;1.04;70.26
31092;BME280;17747;51.070;10.930;2022-11-20T06:34:15;100203.94;;;0.83;70.73
31092;BME280;17747;51.070;10.930;2022-11-20T06:35:47;100195.47;;;1.12;70.12
31092;BME280;17747;51.070;10.930;2022-11-20T06:37:17;100192.91;;;1.21;69.72
31092;BME280;17747;51.070;10.930;2022-11-20T06:38:49;100196.91;;;0.73;70.62
31092;BME280;17747;51.070;10.930;2022-11-20T06:40:20;100197.16;;;1.06;70.21
31092;BME280;17747;51.070;10.930;2022-11-20T06:41:51;100202.19;;;0.79;70.09
31092;BME280;17747;51.070;10.930;2022-11-20T06:43:23;100198.06;;;1.08;69.64
31092;BME280;17747;51.070;10.930;2022-11-20T06:44:56;100200.53;;;0.90;69.71
31092;BME280;17747;51.070;10.930;2022-11-20T06:46:27;100201.16;;;0.60;70.34
31092;BME280;17747;51.070;10.930;2022-11-20T06:47:59;100196.22;;;0.95;69.95
31092;BME280;17747;51.070;10.930;2022-11-20T06:49:30;100197.94;;;0.90;70.24
31092;BME280;17747;51.070;10.930;2022-11-20T06:51:02;100198.06;;;1.16;69.77
31092;BME280;17747;51.070;10.930;2022-11-20T06:52:33;100199.81;;;1.11;69.33
31092;BME280;17747;51.070;10.930;2022-11-20T06:54:05;100196.34;;;1.14;69.44
31092;BME280;17747;51.070;10.930;2022-11-20T06:55:36;100200.53;;;0.90;69.85
31092;BME280;17747;51.070;10.930;2022-11-20T06:57:08;100195.41;;;1.02;69.71
31092;BME280;17747;51.070;10.930;2022-11-20T06:58:39;100206.72;;;1.09;69.50
31092;BME280;17747;51.070;10.930;2022-11-20T07:00:13;100198.00;;;0.99;69.82
31092;BME280;17747;51.070;10.930;2022-11-20T07:01:44;100198.84;;;0.98;69.58
31092;BME280;17747;51.070;10.930;2022-11-20T07:03:16;100194.53;;;1.02;69.74
31092;BME280;17747;51.070;10.930;2022-11-20T07:04:47;100198.06;;;1.10;69.45
31092;BME280;17747;51.070;10.930;2022-11-20T07:06:18;100202.19;;;0.82;70.18
31092;BME280;17747;51.070;10.930;2022-11-20T07:07:50;100200.59;;;0.99;69.58
31092;BME280;17747;51.070;10.930;2022-11-20T07:09:21;100197.09;;;0.96;69.82
31092;BME280;17747;51.070;10.930;2022-11-20T07:10:56;100188.53;;;1.15;69.35
31092;BME280;17747;51.070;10.930;2022-11-20T07:12:28;100190.94;;;0.82;69.80
31092;BME280;17747;51.070;10.930;2022-11-20T07:13:59;100191.69;;;0.68;70.15
31092;BME280;17747;51.070;10.930;2022-11-20T07:15:32;100191.84;;;0.85;70.04
31092;BME280;17747;51.070;10.930;2022-11-20T07:17:03;100194.38;;;0.77;70.23
31092;BME280;17747;51.070;10.930;2022-11-20T07:18:34;100199.59;;;0.82;69.96
31092;BME280;17747;51.070;10.930;2022-11-20T07:20:06;100205.00;;;1.08;69.63
31092;BME280;17747;51.070;10.930;2022-11-20T07:21:37;100198.72;;;0.80;70.04
31092;BME280;17747;51.070;10.930;2022-11-20T07:23:09;100195.34;;;0.96;69.77
31092;BME280;17747;51.070;10.930;2022-11-20T07:24:40;100195.44;;;1.08;69.48
31092;BME280;17747;51.070;10.930;2022-11-20T07:26:12;100193.59;;;0.95;69.55
31092;BME280;17747;51.070;10.930;2022-11-20T07:27:44;100196.25;;;0.97;69.74
31092;BME280;17747;51.070;10.930;2022-11-20T07:29:15;100193.59;;;0.94;70.11
31092;BME280;17747;51.070;10.930;2022-11-20T07:30:50;100200.56;;;0.96;69.65
31092;BME280;17747;51.070;10.930;2022-11-20T07:32:21;100190.94;;;0.85;69.71
31092;BME280;17747;51.070;10.930;2022-11-20T07:33:52;100191.00;;;0.89;69.65
31092;BME280;17747;51.070;10.930;2022-11-20T07:35:24;100185.72;;;0.77;70.08
31092;BME280;17747;51.070;10.930;2022-11-20T07:36:55;100181.88;;;0.29;70.95
31092;BME280;17747;51.070;10.930;2022-11-20T07:38:27;100184.75;;;0.63;70.81
31092;BME280;17747;51.070;10.930;2022-11-20T07:39:58;100184.75;;;0.66;70.30
31092;BME280;17747;51.070;10.930;2022-11-20T07:41:29;100181.09;;;0.41;70.44
31092;BME280;17747;51.070;10.930;2022-11-20T07:43:01;100188.16;;;0.59;70.67
31092;BME280;17747;51.070;10.930;2022-11-20T07:44:32;100182.00;;;0.49;70.77
31092;BME280;17747;51.070;10.930;2022-11-20T07:46:05;100177.97;;;0.86;70.38
31092;BME280;17747;51.070;10.930;2022-11-20T07:47:36;100177.06;;;0.84;69.91
31092;BME280;17747;51.070;10.930;2022-11-20T07:49:08;100178.91;;;1.00;69.56
31092;BME280;17747;51.070;10.930;2022-11-20T07:50:39;100171.13;;;0.99;69.92
31092;BME280;17747;51.070;10.930;2022-11-20T07:52:11;100177.19;;;1.04;69.41
31092;BME280;17747;51.070;10.930;2022-11-20T07:53:42;100177.84;;;0.68;69.69
31092;BME280;17747;51.070;10.930;2022-11-20T07:55:14;100167.50;;;0.74;70.36
31092;BME280;17747;51.070;10.930;2022-11-20T07:56:45;100170.94;;;0.73;70.11
31092;BME280;17747;51.070;10.930;2022-11-20T07:58:17;100171.69;;;0.55;70.35
31092;BME280;17747;51.070;10.930;2022-11-20T07:59:48;100170.53;;;0.21;71.72
31092;BME280;17747;51.070;10.930;2022-11-20T08:01:20;100174.22;;;0.50;71.37
31092;BME280;17747;51.070;10.930;2022-11-20T08:02:51;100174.03;;;0.26;71.33